Flight Track Log - Related Links

Times and Time Zones

All times are in EDT time to prevent confusion due to time zone crossing. See the UAL139 flight status page for this flight to view local times or setup timezone preferences in your user account.

Time Position Orientation Groundspeed Altitude Reporting Facility
EDT Latitude Longitude Course Direction KTS MPH feet Rate Location/Type
Sun 04:58:18 PM 39.8570 -104.6740 101° East 18 21  Level FlightAware ADS-B
Sun 04:59:06 PM 39.8570 -104.6720 90° East 28 32 476 Level FlightAware ADS-B
Sun 04:59:34 PM 39.8570 -104.6680 90° East 28 32 509 Level FlightAware ADS-B
Sun 05:02:00 PM 39.8883 -105.0643 276° West  Level FlightAware Approximate
Sun 05:04:20 PM 39.8640 -104.6620 360° North 30 35  Level FlightAware ADS-B
Sun 05:04:51 PM 39.8650 -104.6620 360° North 25 29 929 Level FlightAware ADS-B
Sun 05:05:20 PM 39.8670 -104.6590 49° Northeast 25 29 1,011 Level FlightAware ADS-B
Sun 05:08:00 PM 39.8869 -105.0459 276° West  Level FlightAware Approximate
Sun 05:09:00 PM 39.8994 -105.2093 276° West  Level FlightAware Approximate
Sun 05:10:00 PM 39.9075 -105.3728 276° West  Level FlightAware Approximate
Sun 05:10:41 PM 39.8268 -104.6420 276° West 190 219 5,900  Level FlightAware ADS-B
Sun 05:10:44 PM 39.8238 -104.6420 180° South 192 221 6,000 1,714 Climbing FlightAware ADS-B
Sun 05:10:48 PM 39.8208 -104.6430 194° South 192 221 6,100 2,571 Climbing FlightAware ADS-B
Sun 05:10:51 PM 39.8176 -104.6440 193° South 192 221 6,300 2,769 Climbing FlightAware ADS-B
Sun 05:11:01 PM 39.8094 -104.6470 196° South 187 215 6,700 1,355 Climbing FlightAware ADS-B
Sun 05:11:22 PM 39.7915 -104.6540 197° South 207 238 7,000 1,000 Climbing FlightAware ADS-B
Sun 05:11:25 PM 39.7889 -104.6560 211° Southwest 212 244 7,100 1,333 Climbing FlightAware ADS-B
Sun 05:11:31 PM 39.7836 -104.6600 210° Southwest 218 251 7,200 1,333 Climbing FlightAware ADS-B
Sun 05:11:34 PM 39.7815 -104.6630 228° Southwest 221 254 7,300 667 Climbing FlightAware ADS-B
Sun 05:11:40 PM 39.7777 -104.6700 235° Southwest 227 261 7,300 600 Level FlightAware ADS-B
Sun 05:11:44 PM 39.7757 -104.6750 243° Southwest 234 269 7,400 857 Climbing FlightAware ADS-B
Sun 05:11:47 PM 39.7743 -104.6790 246° West 238 274 7,400 1,286 Level FlightAware ADS-B
Sun 05:11:58 PM 39.7702 -104.6930 249° West 248 285 7,700 1,154 Climbing FlightAware ADS-B
Sun 05:12:13 PM 39.7648 -104.7150 252° West 266 306 7,900 900 Climbing FlightAware ADS-B
Sun 05:12:18 PM 39.7636 -104.7230 259° West 274 315 8,000 1,846 Climbing FlightAware ADS-B
Sun 05:12:26 PM 39.7630 -104.7380 267° West 281 323 8,300 2,000 Climbing FlightAware ADS-B
Sun 05:12:42 PM 39.7632 -104.7660 271° West 294 338 8,800 2,182 Climbing FlightAware ADS-B
Sun 05:12:59 PM 39.7638 -104.7960 271° West 294 338 9,500 2,000 Climbing FlightAware ADS-B
Sun 05:13:15 PM 39.7644 -104.8240 272° West 297 342 9,900 1,111 Climbing FlightAware ADS-B
Sun 05:13:26 PM 39.7655 -104.8430 274° West 315 362 10,000 545 Climbing FlightAware ADS-B
Sun 05:13:48 PM 39.7786 -104.8850 292° West 340 391 10,200 1,527 Climbing FlightAware ADS-B
Sun 05:14:21 PM 39.8040 -104.9420 300° West 343 395 11,400 2,182 Climbing FlightAware ADS-B
Sun 05:14:32 PM 39.8134 -104.9630 300° West 343 395 11,800 1,902 Climbing FlightAware ADS-B
Sun 05:15:02 PM 39.8386 -105.0200 300° West 365 420 12,700 2,211 Climbing FlightAware ADS-B
Sun 05:15:48 PM 39.8551 -105.1160 283° West 369 425 14,600 2,696 Climbing FlightAware ADS-B
Sun 05:16:11 PM 39.8488 -105.1650 261° West 357 411 15,800 3,214 Climbing FlightAware ADS-B
Sun 05:16:16 PM 39.8468 -105.1770 258° West 358 412 16,100 2,667 Climbing FlightAware ADS-B
Sun 05:16:56 PM 39.8280 -105.2600 254° West 363 418 17,800 2,400 Climbing FlightAware ADS-B
Sun 05:17:26 PM 39.8129 -105.3230 253° West 369 425 18,900 2,129 Climbing FlightAware ADS-B
Sun 05:17:58 PM 39.7969 -105.3890 253° West 373 429 20,000 1,935 Climbing FlightAware ADS-B
Sun 05:18:28 PM 39.7810 -105.4550 253° West 380 437 20,900 2,000 Climbing FlightAware ADS-B
Sun 05:18:49 PM 39.7700 -105.5010 253° West 382 440 21,700 2,151 Climbing FlightAware ADS-B
Sun 05:19:21 PM 39.7560 -105.5730 256° West 379 436 22,800 1,770 Climbing FlightAware ADS-B
Sun 05:19:50 PM 39.7449 -105.6340 257° West 371 427 23,500 1,525 Climbing FlightAware ADS-B
Sun 05:20:20 PM 39.7353 -105.7000 259° West 381 438 24,300 1,600 Climbing FlightAware ADS-B
Sun 05:20:50 PM 39.7256 -105.7700 260° West 386 444 25,100 1,625 Climbing FlightAware ADS-B
Sun 05:21:08 PM 39.7202 -105.8120 261° West 389 448 25,600 1,579 Climbing FlightAware ADS-B
Sun 05:21:28 PM 39.7152 -105.8580 262° West 394 453 26,100 1,412 Climbing FlightAware ADS-B
Sun 05:21:42 PM 39.7136 -105.8910 266° West 399 459 26,400 1,161 Climbing FlightAware ADS-B
Sun 05:21:59 PM 39.7143 -105.9320 271° West 409 471 26,700 2,063 Climbing FlightAware ADS-B
Sun 05:22:14 PM 39.7166 -105.9690 275° West 403 464 27,500 2,483 Climbing FlightAware ADS-B
Sun 05:22:28 PM 39.7202 -106.0010 278° West 406 467 27,900 1,429 Climbing FlightAware ADS-B
Sun 05:22:35 PM 39.7232 -106.0170 284° West 412 474 28,000 571 Climbing FlightAware ADS-B
Sun 05:22:49 PM 39.7332 -106.0500 292° West 424 488 28,100 286 Climbing FlightAware ADS-B
Sun 05:22:56 PM 39.7401 -106.0660 299° West 431 496 28,100 486 Level FlightAware ADS-B
Sun 05:23:26 PM 39.7749 -106.1310 305° West 447 514 28,400 560 Climbing FlightAware ADS-B
Sun 05:24:11 PM 39.8280 -106.2330 304° West 466 536 28,800 610 Climbing FlightAware ADS-B
Sun 05:24:25 PM 39.8458 -106.2660 305° West 472 543 29,000 667 Climbing FlightAware ADS-B
Sun 05:24:56 PM 39.8850 -106.3410 304° West 485 558 29,300 609 Climbing FlightAware ADS-B
Sun 05:25:34 PM 39.9331 -106.4330 304° West 487 560 29,700 706 Climbing FlightAware ADS-B
Sun 05:26:04 PM 39.9731 -106.5100 304° West 508 585 30,100 1,367 Climbing FlightAware ADS-B
Sun 05:26:53 PM 40.0374 -106.6330 304° West 507 583 31,500 1,642 Climbing FlightAware ADS-B
Sun 05:27:39 PM 40.0950 -106.7460 304° West 497 572 32,700 1,516 Climbing FlightAware ADS-B
Sun 05:28:24 PM 40.1532 -106.8580 304° West 493 567 33,800 1,357 Climbing FlightAware ADS-B
Sun 05:29:03 PM 40.2030 -106.9550 304° West 490 564 34,600 1,050 Climbing FlightAware ADS-B
Sun 05:29:44 PM 40.2540 -107.0540 304° West 490 564 35,200 847 Climbing FlightAware ADS-B
Sun 05:30:28 PM 40.3090 -107.1620 304° West 491 565 35,800 571 Climbing FlightAware ADS-B
Sun 05:31:08 PM 40.3590 -107.2610 304° West 488 562 36,000 148 Climbing FlightAware ADS-B
Sun 05:31:49 PM 40.4110 -107.3640 304° West 488 562 36,000  Level FlightAware ADS-B
Sun 05:32:34 PM 40.4670 -107.4730 304° West 489 563 36,000  Level FlightAware ADS-B
Sun 05:33:18 PM 40.5220 -107.5820 304° West 490 564 36,000  Level FlightAware ADS-B
Sun 05:33:57 PM 40.5710 -107.6800 303° West 490 564 36,000  Level FlightAware ADS-B
Sun 05:34:41 PM 40.6260 -107.7900 303° West 491 565 36,000  Level FlightAware ADS-B
Sun 05:35:21 PM 40.6750 -107.8890 303° West 492 566 36,000  Level FlightAware ADS-B
Sun 05:36:03 PM 40.7270 -107.9930 303° West 489 563 36,000  Level FlightAware ADS-B
Sun 05:36:48 PM 40.7820 -108.1050 303° West 489 563 36,000  Level FlightAware ADS-B
Sun 05:37:28 PM 40.8320 -108.2050 303° West 487 560 36,000  Level FlightAware ADS-B
Sun 05:38:11 PM 40.8860 -108.3150 303° West 488 562 36,000  Level FlightAware ADS-B
Sun 05:38:49 PM 40.9320 -108.4090 303° West 489 563 36,000  Level FlightAware ADS-B
Sun 05:39:36 PM 40.9880 -108.5230 303° West 491 565 36,000  Level FlightAware ADS-B
Sun 05:40:16 PM 41.0380 -108.6250 303° West 489 563 36,000  Level FlightAware ADS-B
Sun 05:40:56 PM 41.0870 -108.7270 303° West 489 563 36,000  Level FlightAware ADS-B
Sun 05:41:40 PM 41.1400 -108.8360 303° West 486 559 36,000  Level FlightAware ADS-B
Sun 05:42:17 PM 41.1860 -108.9320 303° West 486 559 36,000  Level FlightAware ADS-B
Sun 05:43:03 PM 41.2400 -109.0450 302° West 486 559 36,000  Level FlightAware ADS-B
Sun 05:43:44 PM 41.2900 -109.1480 303° West 487 560 36,000  Level FlightAware ADS-B
Sun 05:44:28 PM 41.3430 -109.2590 302° West 486 559 36,000  Level FlightAware ADS-B
Sun 05:45:08 PM 41.3910 -109.3610 302° West 487 560 36,000  Level FlightAware ADS-B
Sun 05:45:52 PM 41.4440 -109.4720 303° West 486 559 36,000  Level FlightAware ADS-B
Sun 05:46:36 PM 41.4910 -109.5720 302° West 485 558 36,000  Level FlightAware ADS-B
Sun 05:47:14 PM 41.5330 -109.6610 302° West 484 557 36,000  Level FlightAware ADS-B
Sun 05:48:00 PM 41.5790 -109.7610 302° West 484 557 36,000  Level FlightAware ADS-B
Sun 05:48:34 PM 41.6130 -109.8340 302° West 484 557 36,000  Level FlightAware ADS-B
Sun 05:49:24 PM 41.6640 -109.9420 302° West 484 557 36,000  Level FlightAware ADS-B
Sun 05:50:02 PM 41.7020 -110.0240 302° West 484 557 36,000  Level FlightAware ADS-B
Sun 05:50:38 PM 41.7380 -110.1020 302° West 484 557 36,000  Level FlightAware ADS-B
Sun 05:51:27 PM 41.7880 -110.2080 302° West 484 557 36,000  Level FlightAware ADS-B
Sun 05:52:13 PM 41.8340 -110.3080 302° West 484 557 36,000  Level FlightAware ADS-B
Sun 05:52:49 PM 41.8710 -110.3860 303° West 484 557 36,000  Level FlightAware ADS-B
Sun 05:53:35 PM 41.9170 -110.4850 302° West 484 557 36,000  Level FlightAware ADS-B
Sun 05:54:11 PM 41.9530 -110.5640 302° West 484 557 36,000  Level FlightAware ADS-B
Sun 05:55:00 PM 42.0030 -110.6700 302° West 484 557 36,000  Level FlightAware ADS-B
Sun 05:55:34 PM 42.0370 -110.7440 302° West 484 557 36,000  Level FlightAware ADS-B
Sun 05:56:22 PM 42.0850 -110.8480 302° West 484 557 36,000  Level FlightAware ADS-B
Sun 05:58:34 PM 42.3420 -111.4340 301° West 487 560 36,000  Level FlightAware ADS-B
Sun 05:59:22 PM 42.3971 -111.5590 301° West 489 563 36,000  Level FlightAware ADS-B
Sun 06:00:13 PM 42.4561 -111.6930 301° West 492 566 36,000  Level FlightAware ADS-B
Sun 06:00:43 PM 42.4917 -111.7740 301° West 491 565 36,000  Level FlightAware ADS-B
Sun 06:01:14 PM 42.5274 -111.8560 301° West 492 566 36,000  Level FlightAware ADS-B
Sun 06:01:45 PM 42.5621 -111.9350 301° West 488 562 36,000  Level FlightAware ADS-B
Sun 06:02:15 PM 42.5966 -112.0150 300° West 488 562 36,000  Level FlightAware ADS-B
Sun 06:03:21 PM 42.6722 -112.1890 301° West 486 559 36,000  Level FlightAware ADS-B
Sun 06:03:53 PM 42.7082 -112.2730 300° West 482 555 36,000  Level FlightAware ADS-B
Sun 06:06:04 PM 42.8553 -112.6160 300° West 485 558 36,000  Level FlightAware ADS-B
Sun 06:06:37 PM 42.8949 -112.7010 302° West 486 559 36,000  Level FlightAware ADS-B
Sun 06:07:26 PM 42.9563 -112.8240 304° West 486 559 36,000  Level FlightAware ADS-B
Sun 06:08:10 PM 43.0115 -112.9360 304° West 487 560 36,000  Level FlightAware ADS-B
Sun 06:08:48 PM 43.0604 -113.0340 304° West 488 562 36,000  Level FlightAware ADS-B
Sun 06:14:07 PM 43.4556 -113.8460 304° West 482 555 36,000  Level FlightAware ADS-B
Sun 06:15:09 PM 43.5258 -113.9939 304° West 487 560 36,000  Level Salt Lake Center
Sun 06:16:10 PM 43.5961 -114.1417 303° West 482 555 36,000  Level Salt Lake Center
Sun 06:17:12 PM 43.6783 -114.3133 304° West 481 554 36,000  Level Salt Lake Center
Sun 06:18:14 PM 43.7469 -114.4594 303° West 474 545 36,000  Level Salt Lake Center
Sun 06:19:16 PM 43.8278 -114.6331 303° West 480 552 36,000  Level Salt Lake Center
Sun 06:20:18 PM 43.8983 -114.7814 303° West 480 552 36,000  Level Salt Lake Center
Sun 06:21:19 PM 43.9669 -114.9297 303° West 478 550 36,000  Level Salt Lake Center
Sun 06:22:21 PM 44.0469 -115.1025 303° West 478 550 36,000  Level Salt Lake Center
Sun 06:23:23 PM 44.1158 -115.2519 303° West 478 550 36,000  Level Salt Lake Center
Sun 06:24:25 PM 44.1956 -115.4272 302° West 481 554 36,000  Level Salt Lake Center
Sun 06:26:04 PM 44.3092 -115.6764 303° West 481 554 36,000  Level Seattle Center
Sun 06:27:05 PM 44.3764 -115.8261 302° West 478 550 36,000  Level Seattle Center
Sun 06:28:06 PM 44.4547 -116.0025 302° West 482 555 36,000  Level Seattle Center
Sun 06:29:08 PM 44.5308 -116.1739 302° West 485 558 36,000  Level Seattle Center
Sun 06:30:09 PM 44.5978 -116.3269 302° West 487 560 36,000  Level Seattle Center
Sun 06:31:10 PM 44.6647 -116.4792 302° West 481 554 36,000  Level Seattle Center
Sun 06:32:11 PM 44.7439 -116.6594 302° West 485 558 36,000  Level Seattle Center
Sun 06:33:12 PM 44.8108 -116.8139 301° West 485 558 36,000  Level Seattle Center
Sun 06:39:08 PM 45.2320 -117.8010 301° West 490 564 36,000  Level FlightAware ADS-B
Sun 06:39:50 PM 45.2820 -117.9210 301° West 489 563 36,000  Level FlightAware ADS-B
Sun 06:40:32 PM 45.3300 -118.0360 301° West 489 563 36,000  Level FlightAware ADS-B
Sun 06:41:18 PM 45.3810 -118.1610 300° West 490 564 36,000  Level FlightAware ADS-B
Sun 06:41:58 PM 45.4290 -118.2720 302° West 491 565 36,000  Level FlightAware ADS-B
Sun 06:42:40 PM 45.4840 -118.3850 305° West 492 566 36,000  Level FlightAware ADS-B
Sun 06:43:16 PM 45.5320 -118.4800 306° West 493 567 36,000  Level FlightAware ADS-B
Sun 06:44:05 PM 45.5960 -118.6090 305° West 496 571 36,000  Level FlightAware ADS-B
Sun 06:44:48 PM 45.6540 -118.7250 306° West 496 571 36,000  Level FlightAware ADS-B
Sun 06:45:24 PM 45.7000 -118.8190 305° West 497 572 36,000  Level FlightAware ADS-B
Sun 06:46:10 PM 45.7630 -118.9450 306° West 497 572 36,000  Level FlightAware ADS-B
Sun 06:46:50 PM 45.8150 -119.0510 305° West 497 572 36,000  Level FlightAware ADS-B
Sun 06:47:36 PM 45.8760 -119.1740 305° West 497 572 36,000  Level FlightAware ADS-B
Sun 06:48:18 PM 45.9310 -119.2880 305° West 498 573 36,000  Level FlightAware ADS-B
Sun 06:48:58 PM 45.9850 -119.3980 305° West 499 574 36,000  Level FlightAware ADS-B
Sun 06:49:40 PM 46.0390 -119.5110 305° West 501 577 36,000  Level FlightAware ADS-B
Sun 06:50:24 PM 46.0990 -119.6330 305° West 500 575 36,000  Level FlightAware ADS-B
Sun 06:51:06 PM 46.1540 -119.7470 305° West 499 574 36,000  Level FlightAware ADS-B
Sun 06:51:32 PM 46.1882 -119.8200 304° West 500 575 36,000  Level FlightAware ADS-B
Sun 06:52:28 PM 46.2600 -119.9710 305° West 500 575 36,000  Level FlightAware ADS-B
Sun 06:53:10 PM 46.3160 -120.0880 305° West 501 577 36,000  Level FlightAware ADS-B
Sun 06:53:54 PM 46.3730 -120.2090 304° West 503 579 36,000  Level FlightAware ADS-B
Sun 06:54:36 PM 46.4290 -120.3270 305° West 504 580 36,000  Level FlightAware ADS-B
Sun 06:55:17 PM 46.4810 -120.4380 304° West 505 581 36,000  Level FlightAware ADS-B
Sun 06:56:04 PM 46.5436 -120.5720 304° West 506 582 36,000  Level FlightAware ADS-B
Sun 06:56:34 PM 46.5830 -120.6570 304° West 505 581 36,000  Level FlightAware ADS-B
Sun 06:57:04 PM 46.6218 -120.7410 304° West 505 581 36,000  Level FlightAware ADS-B
Sun 06:57:34 PM 46.6616 -120.8270 304° West 505 581 36,000  Level FlightAware ADS-B
Sun 06:58:04 PM 46.7004 -120.9110 304° West 505 581 36,000  Level FlightAware ADS-B
Sun 06:58:36 PM 46.7412 -121.0000 304° West 507 583 36,000  Level FlightAware ADS-B
Sun 06:59:06 PM 46.7807 -121.0860 304° West 507 583 36,000  Level FlightAware ADS-B
Sun 06:59:36 PM 46.8196 -121.1710 304° West 508 585 36,000  Level FlightAware ADS-B
Sun 07:00:07 PM 46.8601 -121.2600 304° West 509 586 36,000  Level FlightAware ADS-B
Sun 07:00:37 PM 46.8992 -121.3460 304° West 507 583 36,000  Level FlightAware ADS-B
Sun 07:01:07 PM 46.9380 -121.4320 303° West 508 585 36,000  Level FlightAware ADS-B
Sun 07:01:38 PM 46.9773 -121.5190 304° West 510 587 36,000  Level FlightAware ADS-B
Sun 07:02:08 PM 47.0160 -121.6050 303° West 510 587 36,000  Level FlightAware ADS-B
Sun 07:02:38 PM 47.0553 -121.6930 303° West 510 587 36,000  Level FlightAware ADS-B
Sun 07:03:09 PM 47.0955 -121.7830 303° West 509 586 36,000  Level FlightAware ADS-B
Sun 07:03:40 PM 47.1346 -121.8710 303° West 509 586 36,000  Level FlightAware ADS-B
Sun 07:04:11 PM 47.1744 -121.9600 303° West 510 587 36,000  Level FlightAware ADS-B
Sun 07:04:41 PM 47.2128 -122.0470 303° West 510 587 36,000  Level FlightAware ADS-B
Sun 07:05:11 PM 47.2520 -122.1360 303° West 510 587 36,000  Level FlightAware ADS-B
Sun 07:05:42 PM 47.2916 -122.2260 303° West 510 587 36,000  Level FlightAware ADS-B
Sun 07:06:13 PM 47.3302 -122.3140 303° West 511 588 36,000  Level FlightAware ADS-B
Sun 07:06:43 PM 47.3695 -122.4040 303° West 511 588 36,000  Level FlightAware ADS-B
Sun 07:07:14 PM 47.4079 -122.4920 303° West 511 588 36,000  Level FlightAware ADS-B
Sun 07:07:44 PM 47.4465 -122.5820 302° West 510 587 36,000  Level FlightAware ADS-B
Sun 07:08:14 PM 47.4848 -122.6700 303° West 511 588 36,000  Level FlightAware ADS-B
Sun 07:08:45 PM 47.5241 -122.7610 303° West 511 588 36,000  Level FlightAware ADS-B
Sun 07:09:16 PM 47.5626 -122.8510 302° West 512 589 36,000  Level FlightAware ADS-B
Sun 07:09:46 PM 47.6007 -122.9400 302° West 512 589 36,000  Level FlightAware ADS-B
Sun 07:10:16 PM 47.6394 -123.0300 303° West 512 589 36,000  Level FlightAware ADS-B
Sun 07:10:47 PM 47.6774 -123.1200 302° West 513 590 36,000  Level FlightAware ADS-B
Sun 07:11:19 PM 47.7178 -123.2150 302° West 514 592 36,000  Level FlightAware ADS-B
Sun 07:11:51 PM 47.7591 -123.3130 302° West 514 592 36,000  Level FlightAware ADS-B
Sun 07:12:21 PM 47.7969 -123.4030 302° West 515 593 36,000  Level FlightAware ADS-B
Sun 07:12:51 PM 47.8346 -123.4930 302° West 515 593 36,000  Level FlightAware ADS-B
Sun 07:13:22 PM 47.8726 -123.5830 302° West 516 594 36,000  Level FlightAware ADS-B
Sun 07:13:53 PM 47.9125 -123.6790 302° West 516 594 36,000  Level FlightAware ADS-B
Sun 07:14:29 PM 47.9573 -123.7870 302° West 515 593 36,000  Level FlightAware ADS-B
Sun 07:15:00 PM 47.9952 -123.8790 302° West 516 594 36,000  Level FlightAware ADS-B
Sun 07:15:30 PM 48.0337 -123.9720 302° West 516 594 36,000  Level FlightAware ADS-B
Sun 07:16:01 PM 48.0721 -124.0660 301° West 517 595 36,000  Level FlightAware ADS-B
Sun 07:16:31 PM 48.1097 -124.1570 302° West 517 595 36,000  Level FlightAware ADS-B
Sun 07:17:02 PM 48.1478 -124.2510 301° West 517 595 36,000  Level FlightAware ADS-B
Sun 07:17:32 PM 48.1852 -124.3430 301° West 517 595 36,000  Level FlightAware ADS-B
Sun 07:18:36 PM 48.2640 -124.5370 301° West 518 596 36,000  Level FlightAware ADS-B
Sun 07:18:49 PM 48.2807 -124.5770 302° West 518 596 36,000  Level FlightAware ADS-B
Sun 07:19:27 PM 48.3381 -124.6810 310° West 519 597 36,000  Level FlightAware ADS-B
Sun 07:19:34 PM 48.3505 -124.6990 316° Northwest 519 597 36,000  Level FlightAware ADS-B
Sun 07:20:18 PM 48.4278 -124.8090 317° Northwest 518 596 36,000  Level FlightAware ADS-B
Sun 07:21:12 PM 48.5211 -124.9440 316° Northwest 518 596 36,000  Level FlightAware ADS-B
Sun 07:21:48 PM 48.5822 -125.0320 316° Northwest 518 596 36,000  Level FlightAware ADS-B
Sun 07:22:19 PM 48.6367 -125.1110 316° Northwest 517 595 36,000  Level FlightAware ADS-B
Sun 07:22:50 PM 48.6900 -125.1880 316° Northwest 517 595 36,000  Level FlightAware ADS-B
Sun 07:23:08 PM 48.7199 -125.2320 316° Northwest 517 595 36,000  Level FlightAware ADS-B
Sun 07:23:38 PM 48.7718 -125.3070 316° Northwest 516 594 36,000  Level FlightAware ADS-B
Sun 07:24:10 PM 48.8260 -125.3870 316° Northwest 516 594 36,000  Level FlightAware ADS-B
Sun 07:24:55 PM 48.9030 -125.4990 316° Northwest 521 600 36,000  Level FlightAware ADS-B
Sun 07:25:35 PM 48.9700 -125.5980 316° Northwest 523 602 36,000  Level FlightAware ADS-B
Sun 07:26:33 PM 49.0660 -125.7420 316° Northwest 520 598 36,000  Level FlightAware ADS-B
Sun 07:27:16 PM 49.1450 -125.8590 316° Northwest 519 597 36,000  Level FlightAware ADS-B
Sun 07:27:55 PM 49.2120 -125.9590 316° Northwest 519 597 36,000  Level FlightAware ADS-B
Sun 07:28:40 PM 49.2830 -126.0660 316° Northwest 520 598 36,000  Level FlightAware ADS-B
Sun 07:29:20 PM 49.3570 -126.1780 315° West 522 601 36,000  Level FlightAware ADS-B
Sun 07:30:10 PM 49.4340 -126.2930 316° Northwest 522 601 36,000  Level FlightAware ADS-B
Sun 07:30:55 PM 49.5130 -126.4150 315° West 522 601 36,000  Level FlightAware ADS-B
Sun 07:31:41 PM 49.5990 -126.5460 315° West 519 597 36,000  Level FlightAware ADS-B
Sun 07:32:23 PM 49.6670 -126.6510 315° West 519 597 36,000  Level FlightAware ADS-B
Sun 07:33:01 PM 49.7310 -126.7500 315° West 513 590 36,000  Level FlightAware ADS-B
Sun 07:33:44 PM 49.8030 -126.8610 315° West 512 589 36,000  Level FlightAware ADS-B
Sun 07:34:25 PM 49.8730 -126.9700 315° West 519 597 36,000  Level FlightAware ADS-B
Sun 07:35:11 PM 49.9520 -127.0950 315° West 516 594 36,000  Level FlightAware ADS-B
Sun 07:35:49 PM 50.0120 -127.1900 315° West 514 592 36,000  Level FlightAware ADS-B
Sun 07:36:28 PM 50.0780 -127.2940 315° West 514 592 36,000  Level FlightAware ADS-B
Sun 07:37:17 PM 50.1640 -127.4290 315° West 513 590 36,000  Level FlightAware ADS-B
Sun 07:37:57 PM 50.2290 -127.5330 314° West 513 590 36,000  Level FlightAware ADS-B
Sun 07:38:42 PM 50.2940 -127.6510 311° West 514 592 36,000  Level FlightAware ADS-B
Sun 07:39:30 PM 50.3690 -127.7960 309° West 517 595 36,000  Level FlightAware ADS-B
Sun 07:40:35 PM 50.4630 -127.9770 309° West 517 595 36,000  Level FlightAware ADS-B
Sun 07:41:11 PM 50.5160 -128.0810 309° West 517 595 36,000  Level FlightAware ADS-B
Sun 07:42:13 PM 50.6030 -128.2520 309° West 519 597 36,000  Level FlightAware ADS-B
Sun 07:42:51 PM 50.6520 -128.3470 309° West 519 597 36,000  Level FlightAware ADS-B
Sun 07:43:28 PM 50.7000 -128.4400 309° West 519 597 36,000  Level FlightAware ADS-B
Sun 07:44:14 PM 50.7590 -128.5550 309° West 519 597 36,000  Level FlightAware ADS-B
Sun 07:45:01 PM 50.8190 -128.6730 309° West 519 597 36,000  Level FlightAware ADS-B
Sun 07:45:39 PM 50.8680 -128.7680 309° West 519 597 36,000  Level FlightAware ADS-B
Sun 07:46:17 PM 50.9170 -128.8640 309° West 519 597 36,000  Level FlightAware ADS-B
Sun 07:47:06 PM 50.9790 -128.9870 309° West 519 597 36,000  Level FlightAware ADS-B
Sun 07:47:43 PM 51.0270 -129.0810 309° West 519 597 36,000  Level FlightAware ADS-B
Sun 07:48:31 PM 51.0890 -129.2020 309° West 519 597 36,000  Level FlightAware ADS-B
Sun 07:49:05 PM 51.1320 -129.2880 309° West 519 597 36,000  Level FlightAware ADS-B
Sun 07:49:54 PM 51.1950 -129.4120 309° West 519 597 36,000  Level FlightAware ADS-B
Sun 07:50:30 PM 51.2410 -129.5030 309° West 519 597 36,000  Level FlightAware ADS-B
Sun 07:51:17 PM 51.3020 -129.6220 309° West 519 597 36,000  Level FlightAware ADS-B
Sun 07:51:48 PM 51.4333 -130.0167 309° West 520 598 36,000  Level Vancouver Center
Sun 07:52:48 PM 51.5333 -130.2000 311° West 520 598 36,000  Level Vancouver Center
Sun 07:53:48 PM 51.6167 -130.3667 309° West 520 598 36,000  Level Vancouver Center
Sun 07:54:48 PM 51.7000 -130.5667 304° West 520 598 36,000  Level Vancouver Center
Sun 07:55:48 PM 51.7833 -130.7500 306° West 510 587 36,000  Level Vancouver Center
Sun 07:56:48 PM 51.8667 -130.9167 309° West 510 587 36,000  Level Vancouver Center
Sun 07:57:48 PM 51.9500 -131.1167 304° West 520 598 36,000  Level Vancouver Center
Sun 07:58:24 PM 52.0167 -131.1833 328° Northwest 520 598 36,000  Level Anchorage Center
Sun 07:59:24 PM 52.1000 -131.3833 304° West 520 598 36,000  Level Anchorage Center
Sun 08:00:24 PM 52.1833 -131.5667 307° West 520 598 36,000  Level Anchorage Center
Sun 08:01:25 PM 52.2667 -131.7667 304° West 520 598 36,000  Level Anchorage Center
Sun 08:02:25 PM 52.3500 -131.9500 307° West 530 610 36,000  Level Anchorage Center
Sun 08:03:25 PM 52.4333 -132.1500 304° West 520 598 36,000  Level Anchorage Center
Sun 08:04:26 PM 52.5167 -132.3500 304° West 530 610 36,000  Level Anchorage Center
Sun 08:05:26 PM 52.6000 -132.5500 305° West 520 598 36,000  Level Anchorage Center
Sun 08:06:26 PM 52.6833 -132.7333 307° West 530 610 36,000  Level Anchorage Center
Sun 08:07:27 PM 52.7833 -132.9500 307° West 530 610 36,000  Level Anchorage Center
Sun 08:08:27 PM 52.8500 -133.1333 301° West 530 610 36,000  Level Anchorage Center
Sun 08:09:28 PM 52.9500 -133.3500 308° West 530 610 36,000  Level Anchorage Center
Sun 08:10:28 PM 53.0167 -133.5333 301° West 530 610 36,000  Level Anchorage Center
Sun 08:11:28 PM 53.1167 -133.7500 308° West 530 610 36,000  Level Anchorage Center
Sun 08:12:28 PM 53.1833 -133.9500 299° West 530 610 36,000  Level Anchorage Center
Sun 08:13:29 PM 53.2833 -134.1500 310° West 530 610 36,000  Level Anchorage Center
Sun 08:14:29 PM 53.3500 -134.3500 299° West 530 610 36,000  Level Anchorage Center
Sun 08:15:29 PM 53.4500 -134.5667 308° West 540 621 36,000  Level Anchorage Center
Sun 08:16:30 PM 53.5167 -134.7667 299° West 530 610 36,000  Level Anchorage Center
Sun 08:17:30 PM 53.6000 -134.9833 303° West 540 621 36,000  Level Anchorage Center
Sun 08:18:30 PM 53.6833 -135.1833 305° West 530 610 36,000  Level Anchorage Center
Sun 08:19:31 PM 53.7667 -135.4000 303° West 530 610 36,000  Level Anchorage Center
Sun 08:20:31 PM 53.8500 -135.6000 305° West 530 610 36,000  Level Anchorage Center
Sun 08:21:31 PM 53.9333 -135.8167 303° West 520 598 36,000  Level Anchorage Center
Sun 08:22:32 PM 54.0000 -136.0167 300° West 520 598 36,000  Level Anchorage Center
Sun 08:23:32 PM 54.0667 -136.2500 296° West 520 598 36,000  Level Anchorage Center
Sun 08:24:32 PM 54.1333 -136.4500 300° West 520 598 36,000  Level Anchorage Center
Sun 08:25:33 PM 54.2000 -136.6667 298° West 520 598 36,000  Level Anchorage Center
Sun 08:26:33 PM 54.2833 -136.8833 303° West 520 598 36,000  Level Anchorage Center
Sun 08:27:34 PM 54.3500 -137.1000 298° West 520 598 36,000  Level Anchorage Center
Sun 08:28:34 PM 54.4167 -137.3333 296° West 530 610 36,000 100 Level Anchorage Center
Sun 08:29:34 PM 54.4833 -137.5500 298° West 520 598 36,200 500 Climbing Anchorage Center
Sun 08:30:34 PM 54.5500 -137.7667 298° West 520 598 37,000 900 Climbing Anchorage Center
Sun 08:31:34 PM 54.6167 -137.9833 298° West 520 598 38,000 496 Climbing Anchorage Center
Sun 08:32:35 PM 54.6833 -138.2167 296° West 530 610 38,000  Level Anchorage Center
Sun 08:33:35 PM 54.7500 -138.4333 298° West 520 598 38,000  Level Anchorage Center
Sun 08:34:36 PM 54.8167 -138.6667 296° West 520 598 38,000  Level Anchorage Center
Sun 08:35:36 PM 54.8667 -138.8833 292° West 510 587 38,000  Level Anchorage Center
Sun 08:36:36 PM 54.9333 -139.1167 297° West 530 610 38,000  Level Anchorage Center
Sun 08:37:37 PM 55.0000 -139.3333 298° West 520 598 38,000  Level Anchorage Center
Sun 08:38:37 PM 55.0667 -139.5667 297° West 530 610 38,000  Level Anchorage Center
Sun 08:39:37 PM 55.1333 -139.8000 297° West 520 598 38,000  Level Anchorage Center
Sun 08:40:38 PM 55.2000 -140.0167 298° West 520 598 38,000  Level Anchorage Center
Sun 08:41:38 PM 55.2500 -140.2500 291° West 520 598 38,000  Level Anchorage Center
Sun 08:42:38 PM 55.3167 -140.4833 297° West 540 621 38,000  Level Anchorage Center
Sun 08:43:39 PM 55.3833 -140.7167 297° West 510 587 38,000  Level Anchorage Center
Sun 08:44:39 PM 55.4500 -140.9500 297° West 530 610 38,000  Level Anchorage Center
Sun 08:45:39 PM 55.5000 -141.1833 291° West 520 598 38,000  Level Anchorage Center
Sun 08:46:40 PM 55.5667 -141.4167 297° West 520 598 38,000  Level Anchorage Center
Sun 08:48:40 PM 55.7000 -141.9333 295° West 540 621 38,000  Level Anchorage Center
Sun 08:49:41 PM 55.7500 -142.1667 291° West 550 633 38,000  Level Anchorage Center
Sun 08:50:41 PM 55.8167 -142.4167 295° West 530 610 38,000  Level Anchorage Center
Sun 08:51:42 PM 55.8667 -142.6500 291° West 520 598 38,000  Level Anchorage Center
Sun 08:52:42 PM 55.9333 -142.9000 296° West 530 610 38,000  Level Anchorage Center
Sun 08:53:42 PM 55.9833 -143.1167 292° West 530 610 38,000  Level Anchorage Center
Sun 08:54:43 PM 56.0333 -143.3667 290° West 540 621 38,000  Level Anchorage Center
Sun 08:55:43 PM 56.1000 -143.6000 297° West 520 598 38,000  Level Anchorage Center
Sun 08:56:43 PM 56.1500 -143.8500 290° West 530 610 38,000  Level Anchorage Center
Sun 08:57:44 PM 56.2000 -144.1000 290° West 530 610 38,000  Level Anchorage Center
Sun 08:58:44 PM 56.2667 -144.3333 297° West 520 598 38,000  Level Anchorage Center
Sun 08:59:44 PM 56.3167 -144.5833 290° West 520 598 38,000  Level Anchorage Center
Sun 09:00:45 PM 56.3667 -144.8333 290° West 530 610 38,000  Level Anchorage Center
Sun 09:01:45 PM 56.4167 -145.0833 290° West 520 598 38,000  Level Anchorage Center
Sun 09:02:45 PM 56.4833 -145.3333 296° West 520 598 38,000  Level Anchorage Center
Sun 09:03:45 PM 56.5333 -145.5833 290° West 520 598 38,000  Level Anchorage Center
Sun 09:04:46 PM 56.5833 -145.8167 291° West 520 598 38,000  Level Anchorage Center
Sun 09:05:46 PM 56.6333 -146.0667 290° West 520 598 38,000  Level Anchorage Center
Sun 09:06:46 PM 56.6833 -146.3167 290° West 520 598 38,000  Level Anchorage Center
Sun 09:07:47 PM 56.7333 -146.5667 290° West 520 598 38,000  Level Anchorage Center
Sun 09:08:47 PM 56.7833 -146.8167 290° West 520 598 38,000  Level Anchorage Center
Sun 09:09:47 PM 56.8500 -147.1167 292° West 520 598 38,000  Level Anchorage Center
Sun 09:10:48 PM 56.8833 -147.3167 287° West 520 598 38,000  Level Anchorage Center
Sun 09:11:48 PM 56.9500 -147.6167 292° West 520 598 38,000  Level Anchorage Center
Sun 09:12:48 PM 56.9833 -147.8833 283° West 520 598 38,000  Level Anchorage Center
Sun 09:13:49 PM 57.0333 -148.1167 292° West 510 587 38,000  Level Anchorage Center
Sun 09:14:49 PM 57.0833 -148.3833 289° West 510 587 38,000  Level Anchorage Center
Sun 09:15:49 PM 57.1333 -148.6333 290° West 520 598 38,000  Level Anchorage Center
Sun 09:16:50 PM 57.1833 -148.8833 290° West 520 598 38,000  Level Anchorage Center
Sun 09:17:50 PM 57.2167 -149.1333 284° West 520 598 38,000  Level Anchorage Center
Sun 09:18:51 PM 57.2667 -149.4000 289° West 520 598 38,000  Level Anchorage Center
Sun 09:19:51 PM 57.3167 -149.6500 290° West 510 587 38,000  Level Anchorage Center
Sun 09:20:51 PM 57.3500 -149.9000 284° West 510 587 38,000  Level Anchorage Center
Sun 09:21:51 PM 57.4000 -150.1667 289° West 520 598 38,000  Level Anchorage Center
Sun 09:22:51 PM 57.4333 -150.4167 284° West 520 598 38,000  Level Anchorage Center
Sun 09:23:52 PM 57.4833 -150.6833 289° West 530 610 38,000  Level Anchorage Center
Sun 09:24:52 PM 57.5000 -150.9500 277° West 520 598 38,000  Level Anchorage Center
Sun 09:25:52 PM 57.5167 -151.1833 278° West 510 587 38,000  Level Anchorage Center
Sun 09:26:53 PM 57.5333 -151.4500 277° West 510 587 38,000  Level Anchorage Center
Sun 09:27:53 PM 57.5667 -151.7167 283° West 520 598 38,000  Level Anchorage Center
Sun 09:28:54 PM 57.5833 -151.9833 277° West 510 587 38,000  Level Anchorage Center
Sun 09:29:54 PM 57.6167 -152.2500 283° West 520 598 38,000  Level Anchorage Center
Sun 09:30:54 PM 57.6333 -152.5167 277° West 520 598 38,000  Level Anchorage Center
Sun 09:31:55 PM 57.6500 -152.7667 277° West 500 575 38,000  Level Anchorage Center
Sun 09:32:55 PM 57.6667 -153.0333 277° West 500 575 38,000  Level Anchorage Center
Sun 09:33:55 PM 57.6833 -153.3000 277° West 520 598 38,000  Level Anchorage Center
Sun 09:34:56 PM 57.7167 -153.5667 283° West 510 587 38,000  Level Anchorage Center
Sun 09:35:56 PM 57.7333 -153.8833 276° West 510 587 38,000  Level Anchorage Center
Sun 09:36:56 PM 57.7500 -154.1500 277° West 510 587 38,000  Level Anchorage Center
Sun 09:37:57 PM 57.7667 -154.4167 277° West 510 587 38,000  Level Anchorage Center
Sun 09:38:57 PM 57.7833 -154.6833 277° West 510 587 38,000  Level Anchorage Center
Sun 09:39:57 PM 57.8000 -154.9500 277° West 510 587 38,000  Level Anchorage Center
Sun 09:40:58 PM 57.8167 -155.2167 277° West 520 598 38,000  Level Anchorage Center
Sun 09:41:58 PM 57.8333 -155.4833 277° West 520 598 38,000  Level Anchorage Center
Sun 09:42:58 PM 57.8333 -155.7500 270° West 510 587 38,000  Level Anchorage Center
Sun 09:43:59 PM 57.8500 -156.0167 277° West 500 575 38,000  Level Anchorage Center
Sun 09:44:59 PM 57.8667 -156.2833 277° West 510 587 38,000  Level Anchorage Center
Sun 09:45:59 PM 57.8833 -156.5667 276° West 520 598 38,000  Level Anchorage Center
Sun 09:46:59 PM 57.9000 -156.8333 277° West 510 587 38,000  Level Anchorage Center
Sun 09:48:00 PM 57.9000 -157.1000 270° West 510 587 38,000  Level Anchorage Center
Sun 09:49:00 PM 57.9167 -157.3667 277° West 510 587 38,000  Level Anchorage Center
Sun 09:50:00 PM 57.9333 -157.6333 277° West 510 587 38,000  Level Anchorage Center
Sun 09:51:01 PM 57.9333 -157.9000 270° West 500 575 38,000  Level Anchorage Center
Sun 09:52:01 PM 57.9500 -158.1667 277° West 510 587 38,000  Level Anchorage Center
Sun 09:53:02 PM 57.9500 -158.4333 270° West 500 575 38,000  Level Anchorage Center
Sun 09:54:02 PM 57.9667 -158.7167 276° West 510 587 38,000  Level Anchorage Center
Sun 09:55:02 PM 57.9667 -159.0000 270° West 520 598 38,000  Level Anchorage Center
Sun 09:56:03 PM 57.9833 -159.2667 277° West 510 587 38,000  Level Anchorage Center
Sun 09:57:03 PM 57.9833 -159.5333 270° West 510 587 38,000  Level Anchorage Center
Sun 09:58:03 PM 57.9833 -159.8167 270° West 510 587 38,000  Level Anchorage Center
Sun 09:59:04 PM 57.9833 -160.0667 270° West 500 575 38,000  Level Anchorage Center
Sun 10:00:04 PM 58.0000 -160.3333 277° West 500 575 38,000  Level Anchorage Center
Sun 10:01:04 PM 58.0000 -160.6000 270° West 500 575 38,000  Level Anchorage Center
Sun 10:02:05 PM 58.0167 -160.8833 276° West 510 587 38,000  Level Anchorage Center
Sun 10:03:05 PM 58.0167 -161.1333 270° West 500 575 38,000  Level Anchorage Center
Sun 10:04:05 PM 58.0333 -161.4000 277° West 500 575 38,000  Level Anchorage Center
Sun 10:05:06 PM 58.0333 -161.6667 270° West 500 575 38,000  Level Anchorage Center
Sun 10:06:06 PM 58.0333 -161.9333 270° West 500 575 38,000  Level Anchorage Center
Sun 10:07:06 PM 58.0333 -162.1833 270° West 490 564 38,000  Level Anchorage Center
Sun 10:08:07 PM 58.0500 -162.4667 276° West 500 575 38,000  Level Anchorage Center
Sun 10:09:07 PM 58.0500 -162.7167 270° West 500 575 38,000  Level Anchorage Center
Sun 10:10:07 PM 58.0500 -162.9833 270° West 500 575 38,000  Level Anchorage Center
Sun 10:11:08 PM 58.0500 -163.2500 270° West 500 575 38,000  Level Anchorage Center
Sun 10:12:08 PM 58.0500 -163.5167 270° West 500 575 38,000  Level Anchorage Center
Sun 10:13:08 PM 58.0500 -163.7833 270° West 500 575 38,000  Level Anchorage Center
Sun 10:14:09 PM 58.0500 -164.0333 270° West 490 564 38,000  Level Anchorage Center
Sun 10:15:08 PM 58.0500 -164.3000 270° West 490 564 38,000  Level Anchorage Center
Sun 10:16:08 PM 58.0500 -164.5667 270° West 490 564 38,000  Level Anchorage Center
Sun 10:17:08 PM 58.0500 -164.8333 270° West 500 575 38,000  Level Anchorage Center
Sun 10:18:08 PM 58.0500 -165.1167 270° West 490 564 38,000  Level Anchorage Center
Sun 10:19:08 PM 58.0500 -165.3667 270° West 490 564 38,000  Level Anchorage Center
Sun 10:20:08 PM 58.0500 -165.6333 270° West 490 564 38,000  Level Anchorage Center
Sun 10:21:08 PM 58.0500 -165.9000 270° West 490 564 38,000 300 Level Anchorage Center
Sun 10:22:08 PM 58.0500 -166.1667 270° West 490 564 38,600 446 Climbing Anchorage Center
Sun 10:23:09 PM 58.0333 -166.4167 263° West 490 564 38,900 694 Climbing Anchorage Center
Sun 10:24:09 PM 58.0500 -166.6833 277° West 490 564 40,000 555 Climbing Anchorage Center
Sun 10:25:08 PM 58.0333 -166.9333 263° West 480 552 40,000  Level Anchorage Center
Sun 10:26:09 PM 58.0333 -167.2000 270° West 490 564 40,000  Level Anchorage Center
Sun 10:27:09 PM 58.0333 -167.4500 270° West 490 564 40,000  Level Anchorage Center
Sun 10:28:09 PM 58.0333 -167.7167 270° West 490 564 40,000  Level Anchorage Center
Sun 10:29:09 PM 58.0333 -167.9833 270° West 490 564 40,000  Level Anchorage Center
Sun 10:30:09 PM 58.0167 -168.2333 263° West 490 564 40,000  Level Anchorage Center
Sun 10:31:09 PM 58.0167 -168.5000 270° West 480 552 40,000  Level Anchorage Center
Sun 10:32:09 PM 58.0167 -168.7500 270° West 490 564 40,000  Level Anchorage Center
Sun 10:33:09 PM 58.0000 -169.0167 263° West 490 564 40,000  Level Anchorage Center
Sun 10:34:09 PM 58.0000 -169.2667 270° West 490 564 40,000  Level Anchorage Center
Sun 10:35:09 PM 57.9833 -169.5333 263° West 490 564 40,000  Level Anchorage Center
Sun 10:36:09 PM 57.9833 -169.7833 270° West 480 552 40,000  Level Anchorage Center
Sun 10:37:10 PM 57.9667 -170.0333 263° West 490 564 40,000  Level Anchorage Center
Sun 10:38:09 PM 57.9667 -170.3000 270° West 490 564 40,000  Level Anchorage Center
Sun 10:39:09 PM 57.9500 -170.5500 263° West 490 564 40,000  Level Anchorage Center
Sun 10:40:09 PM 57.9333 -170.8167 263° West 490 564 40,000  Level Anchorage Center
Sun 10:41:10 PM 57.9167 -171.0667 263° West 480 552 40,000  Level Anchorage Center
Sun 10:42:10 PM 57.9000 -171.3167 263° West 490 564 40,000  Level Anchorage Center
Sun 10:43:10 PM 57.9000 -171.5667 270° West 480 552 40,000  Level Anchorage Center
Sun 10:44:10 PM 57.8667 -171.8333 257° West 500 575 40,000  Level Anchorage Center
Sun 10:45:10 PM 57.8500 -172.0833 263° West 490 564 40,000  Level Anchorage Center
Sun 10:46:10 PM 57.8333 -172.3333 263° West 490 564 40,000  Level Anchorage Center
Sun 10:47:10 PM 57.8167 -172.6000 263° West 500 575 40,000  Level Anchorage Center
Sun 10:48:10 PM 57.7833 -172.8500 256° West 490 564 40,000  Level Anchorage Center
Sun 10:49:10 PM 57.7667 -173.1000 263° West 480 552 40,000  Level Anchorage Center
Sun 10:50:11 PM 57.7500 -173.3500 263° West 480 552 40,000  Level Anchorage Center
Sun 10:51:10 PM 57.7333 -173.6000 263° West 480 552 40,000  Level Anchorage Center
Sun 10:52:10 PM 57.7000 -173.8500 256° West 490 564 40,000  Level Anchorage Center
Sun 10:53:11 PM 57.6833 -174.1000 263° West 490 564 40,000  Level Anchorage Center
Sun 10:54:11 PM 57.6500 -174.3500 256° West 490 564 40,000  Level Anchorage Center
Sun 10:55:10 PM 57.6333 -174.6000 263° West 490 564 40,000  Level Anchorage Center
Sun 10:56:10 PM 57.6000 -174.8500 256° West 480 552 40,000  Level Anchorage Center
Sun 10:57:11 PM 57.5833 -175.1000 263° West 480 552 40,000  Level Anchorage Center
Sun 10:58:10 PM 57.5667 -175.3500 263° West 480 552 40,000  Level Anchorage Center
Sun 10:59:11 PM 57.5333 -175.6000 256° West 480 552 40,000  Level Anchorage Center
Sun 11:00:11 PM 57.5000 -175.8500 256° West 480 552 40,000  Level Anchorage Center
Sun 11:01:11 PM 57.4833 -176.1000 263° West 480 552 40,000  Level Anchorage Center
Sun 11:04:00 PM 57.4356 -176.5385 259° West  Level FlightAware Approximate
Sun 11:09:32 PM 57.2500 -178.1167 257° West 489 563 40,000  Level Anchorage Center
Sun 11:11:00 PM 57.2375 -178.2172 258° West  Level FlightAware Approximate
Sun 11:12:00 PM 57.2074 -178.4555 257° West  Level FlightAware Approximate
Sun 11:13:00 PM 57.1768 -178.6934 257° West  Level FlightAware Approximate
Sun 11:14:00 PM 57.1458 -178.9309 257° West  Level FlightAware Approximate
Sun 11:15:00 PM 57.0651 -179.5316 256° West 489 563 40,000  Level FlightAware Transoceanic
Sun 11:16:00 PM 57.0328 -179.7660 256° West 489 563 40,000  Level FlightAware Transoceanic
Sun 11:17:00 PM 57.0000 -180.0000 249° West 489 563 40,000  Level FlightAware Transoceanic
Sun 11:17:17 PM 57.0000 180.0000 249° West 489 563 40,000  Level Anchorage Center
Sun 11:18:00 PM 56.9537 179.7839 248° West 489 563 40,000  Level FlightAware Transoceanic
Sun 11:19:00 PM 56.9070 179.5683 248° West 489 563 40,000  Level FlightAware Transoceanic
Sun 11:19:28 PM 56.9000 179.5667 248° West 485 558 40,000  Level Anchorage Center
Sun 11:20:00 PM 56.8600 179.3532 248° West 489 563 40,000  Level FlightAware Transoceanic
Sun 11:21:00 PM 56.8125 179.1387 248° West 489 563 40,000  Level FlightAware Transoceanic
Sun 11:22:00 PM 56.7648 178.9248 248° West 489 563 40,000  Level FlightAware Transoceanic
Sun 11:23:00 PM 56.6924 178.6048 247° West 489 563 40,000  Level FlightAware Transoceanic
Sun 11:24:00 PM 56.6396 178.3746 247° West 489 563 40,000  Level FlightAware Transoceanic
Sun 11:25:00 PM 56.5966 178.2124 247° West 485 558 40,000  Level FlightAware Transoceanic
Sun 11:26:00 PM 56.5446 177.9888 247° West 485 558 40,000  Level FlightAware Transoceanic
Sun 11:27:00 PM 56.4922 177.7658 247° West 485 558 40,000  Level FlightAware Transoceanic
Sun 11:28:00 PM 56.4394 177.5435 247° West 485 558 40,000  Level FlightAware Transoceanic
Sun 11:28:40 PM 56.4167 177.4000 246° West 483 556 40,000  Level Anchorage Center
Sun 11:29:00 PM 56.3862 177.3217 246° West 485 558 40,000  Level FlightAware Transoceanic
Sun 11:30:00 PM 56.3326 177.1006 246° West 485 558 40,000  Level FlightAware Transoceanic
Sun 11:31:00 PM 56.2787 176.8802 246° West 485 558 40,000  Level FlightAware Transoceanic
Sun 11:32:00 PM 56.2243 176.6603 246° West 485 558 40,000  Level FlightAware Transoceanic
Sun 11:33:00 PM 56.1695 176.4411 246° West 485 558 40,000  Level FlightAware Transoceanic
Sun 11:34:00 PM 56.0958 176.1136 245° Southwest 483 556 40,000  Level FlightAware Transoceanic
Sun 11:35:00 PM 56.0410 175.9013 245° Southwest 483 556 40,000  Level FlightAware Transoceanic
Sun 11:35:13 PM 56.0333 175.9333 244° Southwest 490 564 40,000  Level Anchorage Center
Sun 11:36:00 PM 55.9859 175.6896 245° Southwest 483 556 40,000  Level FlightAware Transoceanic
Sun 11:36:13 PM 55.9833 175.7500 244° Southwest 470 541 40,000  Level Anchorage Center
Sun 11:37:00 PM 55.9304 175.4785 245° Southwest 483 556 40,000  Level FlightAware Transoceanic
Sun 11:37:13 PM 55.9333 175.5167 249° West 480 552 40,000  Level Anchorage Center
Sun 11:38:00 PM 55.8745 175.2681 245° Southwest 483 556 40,000  Level FlightAware Transoceanic
Sun 11:38:13 PM 55.8667 175.3333 237° Southwest 480 552 40,000  Level Anchorage Center
Sun 11:39:00 PM 55.8183 175.0582 244° Southwest 483 556 40,000  Level FlightAware Transoceanic
Sun 11:39:14 PM 55.8167 175.1000 249° West 480 552 40,000  Level Anchorage Center
Sun 11:40:00 PM 55.7617 174.8489 244° Southwest 483 556 40,000  Level FlightAware Transoceanic
Sun 11:40:13 PM 55.7667 174.9167 244° Southwest 480 552 40,000  Level Anchorage Center
Sun 11:41:13 PM 55.7000 174.6833 243° Southwest 480 552 40,000  Level Anchorage Center
Sun 11:42:13 PM 55.6333 174.4500 243° Southwest 480 552 40,000  Level Anchorage Center
Sun 11:43:14 PM 55.5833 174.2500 246° West 490 564 40,000  Level Anchorage Center
Sun 11:44:14 PM 55.5167 174.0333 242° Southwest 480 552 40,000  Level Anchorage Center
Sun 11:45:13 PM 55.4667 173.8333 246° West 480 552 40,000  Level Anchorage Center
Sun 11:46:14 PM 55.4000 173.6167 242° Southwest 480 552 40,000  Level Anchorage Center
Sun 11:47:14 PM 55.3500 173.4333 244° Southwest 480 552 40,000  Level Anchorage Center
Sun 11:48:14 PM 55.2833 173.2000 243° Southwest 480 552 40,000  Level Anchorage Center
Sun 11:49:14 PM 55.2333 173.0167 245° Southwest 480 552 40,000  Level Anchorage Center
Sun 11:50:14 PM 55.1667 172.8000 242° Southwest 480 552 40,000  Level Anchorage Center
Sun 11:51:14 PM 55.1000 172.5667 244° Southwest 470 541 40,000  Level Anchorage Center
Sun 11:52:14 PM 55.0500 172.3833 245° Southwest 490 564 40,000  Level Anchorage Center
Sun 11:53:14 PM 54.9833 172.1667 242° Southwest 490 564 40,000  Level Anchorage Center
Sun 11:56:00 PM 54.8580 171.8230 235° Southwest  Level FlightAware Approximate
Sun 11:57:27 PM 54.6667 171.3667 235° Southwest 475 547 40,000  Level Anchorage Center
Mon 12:03:00 AM 54.2130 170.2882 234° Southwest 475 547 40,000  Level FlightAware Transoceanic
Mon 12:04:00 AM 54.1365 170.1107 234° Southwest 475 547 40,000  Level FlightAware Transoceanic
Mon 12:05:00 AM 54.0597 169.9339 233° Southwest 475 547 40,000  Level FlightAware Transoceanic
Mon 12:06:00 AM 53.9827 169.7578 233° Southwest 475 547 40,000  Level FlightAware Transoceanic
Mon 12:07:00 AM 53.9054 169.5823 233° Southwest 475 547 40,000  Level FlightAware Transoceanic
Mon 12:07:05 AM 53.9333 169.6333 232° Southwest 471 542 40,000  Level Anchorage Center
Mon 12:08:00 AM 53.8278 169.4075 233° Southwest 475 547 40,000  Level FlightAware Transoceanic
Mon 12:09:00 AM 53.7500 169.2333 241° Southwest 475 547 40,000  Level FlightAware Transoceanic
Mon 12:09:19 AM 53.7500 169.2333 241° Southwest 470 541 40,000  Level Anchorage Center
Mon 12:10:00 AM 53.6840 169.0321 241° Southwest 475 547 40,000  Level FlightAware Transoceanic
Mon 12:11:00 AM 53.6177 168.8314 241° Southwest 475 547 40,000  Level FlightAware Transoceanic
Mon 12:12:00 AM 53.5510 168.6314 241° Southwest 475 547 40,000  Level FlightAware Transoceanic
Mon 12:13:00 AM 53.5287 168.5649 241° Southwest 471 542 40,000  Level FlightAware Transoceanic
Mon 12:14:00 AM 53.4728 168.3989 240° Southwest 471 542 40,000  Level FlightAware Transoceanic
Mon 12:14:29 AM 53.4167 168.2333 239° Southwest 473 544 40,000  Level Anchorage Center
Mon 12:15:00 AM 53.3545 168.0570 239° Southwest 470 541 40,000  Level FlightAware Transoceanic
Mon 12:16:00 AM 53.2920 167.8811 239° Southwest 470 541 40,000  Level FlightAware Transoceanic
Mon 12:16:38 AM 53.2667 167.8333 239° Southwest 469 540 40,000  Level Anchorage Center
Mon 12:17:00 AM 53.2293 167.7057 239° Southwest 470 541 40,000  Level FlightAware Transoceanic
Mon 12:18:00 AM 53.1663 167.5309 239° Southwest 470 541 40,000  Level FlightAware Transoceanic
Mon 12:19:00 AM 53.1031 167.3566 239° Southwest 470 541 40,000  Level FlightAware Transoceanic
Mon 12:20:00 AM 53.0090 167.0996 239° Southwest 473 544 40,000  Level FlightAware Transoceanic
Mon 12:21:00 AM 52.9400 166.9127 238° Southwest 473 544 40,000  Level FlightAware Transoceanic
Mon 12:22:00 AM 52.8708 166.7264 238° Southwest 473 544 40,000  Level FlightAware Transoceanic
Mon 12:23:00 AM 52.8105 166.5814 238° Southwest 469 540 40,000  Level FlightAware Transoceanic
Mon 12:24:00 AM 52.7443 166.4047 238° Southwest 469 540 40,000  Level FlightAware Transoceanic
Mon 12:25:00 AM 52.6778 166.2285 238° Southwest 469 540 40,000  Level FlightAware Transoceanic
Mon 12:26:00 AM 52.6110 166.0529 238° Southwest 469 540 40,000  Level FlightAware Transoceanic
Mon 12:26:22 AM 52.6167 166.0667 238° Southwest 471 542 40,000  Level Anchorage Center
Mon 12:27:00 AM 52.5440 165.8778 238° Southwest 469 540 40,000  Level FlightAware Transoceanic
Mon 12:28:00 AM 52.4768 165.7032 238° Southwest 469 540 40,000  Level FlightAware Transoceanic
Mon 12:29:00 AM 52.4092 165.5292 237° Southwest 469 540 40,000  Level FlightAware Transoceanic
Mon 12:30:00 AM 52.3415 165.3557 237° Southwest 469 540 40,000  Level FlightAware Transoceanic
Mon 12:31:00 AM 52.2734 165.1828 237° Southwest 469 540 40,000  Level FlightAware Transoceanic
Mon 12:32:00 AM 52.2084 165.0181 237° Southwest 471 542 40,000  Level FlightAware Transoceanic
Mon 12:33:00 AM 52.1395 164.8452 237° Southwest 471 542 40,000  Level FlightAware Transoceanic
Mon 12:34:00 AM 52.0703 164.6729 237° Southwest 471 542 40,000  Level FlightAware Transoceanic
Mon 12:35:00 AM 52.0009 164.5011 237° Southwest 471 542 40,000  Level FlightAware Transoceanic
Mon 12:35:57 AM 51.9333 164.3333 236° Southwest 476 548 40,000  Level Anchorage Center
Mon 12:36:00 AM 51.9312 164.3298 236° Southwest 471 542 40,000  Level FlightAware Transoceanic
Mon 12:37:00 AM 51.8613 164.1591 236° Southwest 471 542 40,000  Level FlightAware Transoceanic
Mon 12:38:00 AM 51.7911 163.9888 236° Southwest 471 542 40,000  Level FlightAware Transoceanic
Mon 12:39:00 AM 51.7207 163.8192 236° Southwest 471 542 40,000  Level FlightAware Transoceanic
Mon 12:39:52 AM 51.6500 163.6500 236° Southwest 474 545 40,000  Level Anchorage Center
Mon 12:40:00 AM 51.6500 163.6500 236° Southwest 471 542 40,000  Level FlightAware Transoceanic
Mon 12:41:00 AM 51.5813 163.4843 236° Southwest 471 542 40,000  Level FlightAware Transoceanic
Mon 12:42:00 AM 51.5070 163.3065 236° Southwest 476 548 40,000  Level FlightAware Transoceanic
Mon 12:43:00 AM 51.4352 163.1356 236° Southwest 476 548 40,000  Level FlightAware Transoceanic
Mon 12:44:00 AM 51.3630 162.9652 236° Southwest 476 548 40,000  Level FlightAware Transoceanic
Mon 12:45:00 AM 51.2907 162.7953 236° Southwest 476 548 40,000  Level FlightAware Transoceanic
Mon 12:45:33 AM 51.2333 162.6500 235° Southwest 472 543 40,000  Level Anchorage Center
Mon 12:46:00 AM 51.2006 162.5855 235° Southwest 474 545 40,000  Level FlightAware Transoceanic
Mon 12:47:00 AM 51.1248 162.4101 235° Southwest 474 545 40,000  Level FlightAware Transoceanic
Mon 12:48:00 AM 51.0487 162.2353 235° Southwest 474 545 40,000  Level FlightAware Transoceanic
Mon 12:49:00 AM 50.9724 162.0610 235° Southwest 474 545 40,000  Level FlightAware Transoceanic
Mon 12:50:00 AM 50.8957 161.8874 235° Southwest 474 545 40,000  Level FlightAware Transoceanic
Mon 12:51:00 AM 50.7882 161.6377 235° Southwest 472 543 40,000  Level FlightAware Transoceanic
Mon 12:52:00 AM 50.7132 161.4708 235° Southwest 472 543 40,000  Level FlightAware Transoceanic
Mon 12:53:00 AM 50.6379 161.3045 234° Southwest 472 543 40,000  Level FlightAware Transoceanic
Mon 12:54:00 AM 50.5624 161.1388 234° Southwest 472 543 40,000  Level FlightAware Transoceanic
Mon 12:55:00 AM 50.4867 160.9735 234° Southwest 472 543 40,000  Level FlightAware Transoceanic
Mon 12:55:11 AM 50.5000 161.0167 234° Southwest 474 545 40,000  Level Anchorage Center
Mon 12:56:00 AM 50.4107 160.8088 234° Southwest 472 543 40,000  Level FlightAware Transoceanic
Mon 12:57:00 AM 50.3345 160.6446 234° Southwest 472 543 40,000  Level FlightAware Transoceanic
Mon 12:58:00 AM 50.2580 160.4810 234° Southwest 472 543 40,000  Level FlightAware Transoceanic
Mon 12:59:00 AM 50.1814 160.3178 234° Southwest 472 543 40,000  Level FlightAware Transoceanic
Mon 01:00:00 AM 50.1045 160.1552 234° Southwest 472 543 40,000  Level FlightAware Transoceanic
Mon 01:01:00 AM 50.0329 160.0101 234° Southwest 474 545 40,000  Level FlightAware Transoceanic
Mon 01:02:00 AM 49.9542 159.8443 234° Southwest 474 545 40,000  Level FlightAware Transoceanic
Mon 01:03:00 AM 49.8752 159.6790 233° Southwest 474 545 40,000  Level FlightAware Transoceanic
Mon 01:04:00 AM 49.7961 159.5142 233° Southwest 474 545 40,000  Level FlightAware Transoceanic
Mon 01:05:00 AM 49.7167 159.3500 233° Southwest 474 545 40,000  Level FlightAware Transoceanic
Mon 01:06:00 AM 49.6428 159.1993 233° Southwest 474 545 40,000  Level FlightAware Transoceanic
Mon 01:07:00 AM 49.5688 159.0490 233° Southwest 474 545 40,000  Level FlightAware Transoceanic
Mon 01:08:00 AM 49.4946 158.8992 233° Southwest 474 545 40,000  Level FlightAware Transoceanic
Mon 01:09:00 AM 49.4202 158.7499 232° Southwest 474 545 40,000  Level FlightAware Transoceanic
Mon 01:10:00 AM 49.3456 158.6010 232° Southwest 474 545 40,000  Level FlightAware Transoceanic
Mon 01:11:00 AM 49.2709 158.4526 232° Southwest 474 545 40,000  Level FlightAware Transoceanic
Mon 01:12:00 AM 49.1959 158.3046 232° Southwest 474 545 40,000  Level FlightAware Transoceanic
Mon 01:13:00 AM 49.1207 158.1571 232° Southwest 474 545 40,000  Level FlightAware Transoceanic
Mon 01:14:00 AM 49.0454 158.0100 232° Southwest 474 545 40,000  Level FlightAware Transoceanic
Mon 01:15:00 AM 48.9698 157.8633 232° Southwest 474 545 40,000  Level FlightAware Transoceanic
Mon 01:16:00 AM 48.8941 157.7171 232° Southwest 474 545 40,000  Level FlightAware Transoceanic
Mon 01:17:00 AM 48.8182 157.5714 232° Southwest 474 545 40,000  Level FlightAware Transoceanic
Mon 01:18:00 AM 48.7421 157.4261 231° Southwest 474 545 40,000  Level FlightAware Transoceanic
Mon 01:19:00 AM 48.6659 157.2812 231° Southwest 474 545 40,000  Level FlightAware Transoceanic
Mon 01:20:00 AM 48.5894 157.1367 231° Southwest 474 545 40,000  Level FlightAware Transoceanic
Mon 01:21:00 AM 48.5128 156.9927 231° Southwest 474 545 40,000  Level FlightAware Transoceanic
Mon 01:22:00 AM 48.4360 156.8492 231° Southwest 474 545 40,000  Level FlightAware Transoceanic
Mon 01:23:00 AM 48.3590 156.7060 231° Southwest 474 545 40,000  Level FlightAware Transoceanic
Mon 01:24:00 AM 48.2818 156.5633 231° Southwest 474 545 40,000  Level FlightAware Transoceanic
Mon 01:25:00 AM 48.2045 156.4211 231° Southwest 474 545 40,000  Level FlightAware Transoceanic
Mon 01:26:00 AM 48.1270 156.2792 231° Southwest 474 545 40,000  Level FlightAware Transoceanic
Mon 01:27:00 AM 48.0493 156.1378 231° Southwest 474 545 40,000  Level FlightAware Transoceanic
Mon 01:28:00 AM 47.9714 155.9968 230° Southwest 474 545 40,000  Level FlightAware Transoceanic
Mon 01:29:00 AM 47.8934 155.8563 230° Southwest 474 545 40,000  Level FlightAware Transoceanic
Mon 01:30:00 AM 47.8152 155.7162 230° Southwest 474 545 40,000  Level FlightAware Transoceanic
Mon 01:31:00 AM 47.7368 155.5764 230° Southwest 474 545 40,000  Level FlightAware Transoceanic
Mon 01:32:00 AM 47.6583 155.4371 230° Southwest 474 545 40,000  Level FlightAware Transoceanic
Mon 01:33:00 AM 47.5796 155.2983 230° Southwest 474 545 40,000  Level FlightAware Transoceanic
Mon 01:34:00 AM 47.5007 155.1598 230° Southwest 474 545 40,000  Level FlightAware Transoceanic
Mon 01:35:00 AM 47.4216 155.0218 230° Southwest 474 545 40,000  Level FlightAware Transoceanic
Mon 01:36:00 AM 47.3424 154.8841 230° Southwest 474 545 40,000  Level FlightAware Transoceanic
Mon 01:37:00 AM 47.2631 154.7469 229° Southwest 474 545 40,000  Level FlightAware Transoceanic
Mon 01:38:00 AM 47.1835 154.6101 229° Southwest 474 545 40,000  Level FlightAware Transoceanic
Mon 01:39:00 AM 47.1038 154.4737 229° Southwest 474 545 40,000  Level FlightAware Transoceanic
Mon 01:40:00 AM 47.0240 154.3377 229° Southwest 474 545 40,000  Level FlightAware Transoceanic
Mon 01:41:00 AM 46.9439 154.2022 229° Southwest 474 545 40,000  Level FlightAware Transoceanic
Mon 01:42:00 AM 46.8638 154.0670 229° Southwest 474 545 40,000  Level FlightAware Transoceanic
Mon 01:43:00 AM 46.7834 153.9322 229° Southwest 474 545 40,000  Level FlightAware Transoceanic
Mon 01:44:00 AM 46.7029 153.7979 229° Southwest 474 545 40,000  Level FlightAware Transoceanic
Mon 01:45:00 AM 46.6223 153.6639 229° Southwest 474 545 40,000  Level FlightAware Transoceanic
Mon 01:46:00 AM 46.5415 153.5303 229° Southwest 474 545 40,000  Level FlightAware Transoceanic
Mon 01:47:00 AM 46.4605 153.3971 228° Southwest 474 545 40,000  Level FlightAware Transoceanic
Mon 01:48:00 AM 46.3794 153.2644 228° Southwest 474 545 40,000  Level FlightAware Transoceanic
Mon 01:49:00 AM 46.2981 153.1320 228° Southwest 474 545 40,000  Level FlightAware Transoceanic
Mon 01:50:00 AM 46.2100 152.9892 228° Southwest  Level FlightAware Approximate
Mon 01:51:00 AM 46.2032 152.9786 228° Southwest  Level FlightAware Approximate
Mon 01:52:00 AM 46.1140 152.8376 228° Southwest  Level FlightAware Approximate
Mon 01:53:00 AM 46.0246 152.6969 228° Southwest  Level FlightAware Approximate
Mon 01:54:00 AM 45.9350 152.5568 227° Southwest  Level FlightAware Approximate
Mon 01:55:00 AM 45.8453 152.4171 227° Southwest  Level FlightAware Approximate
Mon 01:56:00 AM 45.7554 152.2778 227° Southwest  Level FlightAware Approximate
Mon 01:57:00 AM 45.6654 152.1389 227° Southwest  Level FlightAware Approximate
Mon 01:58:00 AM 45.5756 151.9999 227° Southwest  Level FlightAware Approximate
Mon 01:59:00 AM 45.4857 151.8614 227° Southwest  Level FlightAware Approximate
Mon 02:00:00 AM 45.3956 151.7234 227° Southwest  Level FlightAware Approximate
Mon 02:01:00 AM 45.3053 151.5858 227° Southwest  Level FlightAware Approximate
Mon 02:02:00 AM 45.2148 151.4486 227° Southwest  Level FlightAware Approximate
Mon 02:03:00 AM 45.1242 151.3118 227° Southwest  Level FlightAware Approximate
Mon 02:04:00 AM 45.0334 151.1755 227° Southwest  Level FlightAware Approximate
Mon 02:05:00 AM 44.9425 151.0396 227° Southwest  Level FlightAware Approximate
Mon 02:06:00 AM 44.8513 150.9042 227° Southwest  Level FlightAware Approximate
Mon 02:07:00 AM 44.7601 150.7692 226° Southwest  Level FlightAware Approximate
Mon 02:08:00 AM 44.6687 150.6346 226° Southwest  Level FlightAware Approximate
Mon 02:09:00 AM 44.5771 150.5004 226° Southwest  Level FlightAware Approximate
Mon 02:10:00 AM 44.4853 150.3667 226° Southwest  Level FlightAware Approximate
Mon 02:11:00 AM 44.3935 150.2333 226° Southwest  Level FlightAware Approximate
Mon 02:12:00 AM 44.3014 150.1004 226° Southwest  Level FlightAware Approximate
Mon 02:13:00 AM 44.2092 149.9679 226° Southwest  Level FlightAware Approximate
Mon 02:14:00 AM 44.1168 149.8358 226° Southwest  Level FlightAware Approximate
Mon 02:15:00 AM 44.0243 149.7042 226° Southwest  Level FlightAware Approximate
Mon 02:16:00 AM 43.9317 149.5729 226° Southwest  Level FlightAware Approximate
Mon 02:17:00 AM 43.8389 149.4421 226° Southwest  Level FlightAware Approximate
Mon 02:18:00 AM 43.7459 149.3116 225° Southwest  Level FlightAware Approximate
Mon 02:18:51 AM 43.4040 148.8360 225° Southwest 459 528 40,000  Level FlightAware ADS-B
Mon 02:19:00 AM 43.6528 149.1816 225° Southwest  Level FlightAware Approximate
Mon 02:19:31 AM 43.3450 148.7540 225° Southwest 460 529 40,000  Level FlightAware ADS-B
Mon 02:20:26 AM 43.2600 148.6380 225° Southwest 462 532 40,000  Level FlightAware ADS-B
Mon 02:21:06 AM 43.2040 148.5610 225° Southwest 463 533 40,000  Level FlightAware ADS-B
Mon 02:21:56 AM 43.1220 148.4500 225° Southwest 461 531 40,000  Level FlightAware ADS-B
Mon 02:22:21 AM 43.0840 148.3980 225° Southwest 460 529 40,000  Level FlightAware ADS-B
Mon 02:23:03 AM 43.0210 148.3130 225° Southwest 458 527 40,000  Level FlightAware ADS-B
Mon 02:23:48 AM 42.9520 148.2210 224° Southwest 457 526 40,000  Level FlightAware ADS-B
Mon 02:24:28 AM 42.8910 148.1380 225° Southwest 458 527 40,000  Level FlightAware ADS-B
Mon 02:25:08 AM 42.8290 148.0550 224° Southwest 461 531 40,000  Level FlightAware ADS-B
Mon 02:25:53 AM 42.7600 147.9630 224° Southwest 469 540 40,000  Level FlightAware ADS-B
Mon 02:26:33 AM 42.6980 147.8800 225° Southwest 470 541 40,000  Level FlightAware ADS-B
Mon 02:27:13 AM 42.6350 147.7970 224° Southwest 470 541 40,000  Level FlightAware ADS-B
Mon 02:27:53 AM 42.5730 147.7150 224° Southwest 469 540 40,000  Level FlightAware ADS-B
Mon 02:28:38 AM 42.5030 147.6230 224° Southwest 469 540 40,000  Level FlightAware ADS-B
Mon 02:29:23 AM 42.4330 147.5310 224° Southwest 468 539 40,000  Level FlightAware ADS-B
Mon 02:30:03 AM 42.3720 147.4500 224° Southwest 471 542 40,000  Level FlightAware ADS-B
Mon 02:30:43 AM 42.3080 147.3660 224° Southwest 469 540 40,000  Level FlightAware ADS-B
Mon 02:31:28 AM 42.2390 147.2770 224° Southwest 467 537 40,000  Level FlightAware ADS-B
Mon 02:32:08 AM 42.1760 147.1950 224° Southwest 458 527 40,000  Level FlightAware ADS-B
Mon 02:32:53 AM 42.1070 147.1050 224° Southwest 456 525 40,000  Level FlightAware ADS-B
Mon 02:33:33 AM 42.0450 147.0250 224° Southwest 464 534 40,000  Level FlightAware ADS-B
Mon 02:34:13 AM 41.9840 146.9460 224° Southwest 457 526 40,000  Level FlightAware ADS-B
Mon 02:34:58 AM 41.9140 146.8570 223° Southwest 457 526 40,000  Level FlightAware ADS-B
Mon 02:35:38 AM 41.8520 146.7760 224° Southwest 464 534 40,000  Level FlightAware ADS-B
Mon 02:36:18 AM 41.7910 146.6980 224° Southwest 464 534 40,000  Level FlightAware ADS-B
Mon 02:37:03 AM 41.7200 146.6080 223° Southwest 456 525 40,000  Level FlightAware ADS-B
Mon 02:37:43 AM 41.6590 146.5300 224° Southwest 454 522 40,000  Level FlightAware ADS-B
Mon 02:38:28 AM 41.5890 146.4420 223° Southwest 452 520 40,000  Level FlightAware ADS-B
Mon 02:39:08 AM 41.5280 146.3640 224° Southwest 453 521 40,000  Level FlightAware ADS-B
Mon 02:39:48 AM 41.4670 146.2870 223° Southwest 454 522 40,000  Level FlightAware ADS-B
Mon 02:40:28 AM 41.4060 146.2100 223° Southwest 454 522 40,000  Level FlightAware ADS-B
Mon 02:41:18 AM 41.3280 146.1120 223° Southwest 453 521 40,000  Level FlightAware ADS-B
Mon 02:41:58 AM 41.2650 146.0340 223° Southwest 460 529 40,000  Level FlightAware ADS-B
Mon 02:42:38 AM 41.2040 145.9570 224° Southwest 461 531 40,000  Level FlightAware ADS-B
Mon 02:43:23 AM 41.1340 145.8700 223° Southwest 451 519 40,000  Level FlightAware ADS-B
Mon 02:43:58 AM 41.0810 145.8040 223° Southwest 450 518 40,000  Level FlightAware ADS-B
Mon 02:44:48 AM 41.0040 145.7100 223° Southwest 449 517 40,000  Level FlightAware ADS-B
Mon 02:45:28 AM 40.9410 145.6320 223° Southwest 447 514 40,000  Level FlightAware ADS-B
Mon 02:46:08 AM 40.8800 145.5560 223° Southwest 449 517 40,000  Level FlightAware ADS-B
Mon 02:46:53 AM 40.8140 145.4760 223° Southwest 444 511 40,000  Level FlightAware ADS-B
Mon 02:47:33 AM 40.7500 145.3980 223° Southwest 444 511 40,000  Level FlightAware ADS-B
Mon 02:48:13 AM 40.6900 145.3240 223° Southwest 443 510 40,000  Level FlightAware ADS-B
Mon 02:48:58 AM 40.6200 145.2380 223° Southwest 444 511 40,000  Level FlightAware ADS-B
Mon 02:49:38 AM 40.5580 145.1640 222° Southwest 444 511 40,000  Level FlightAware ADS-B
Mon 02:50:18 AM 40.5040 145.0980 223° Southwest 444 511 40,000  Level FlightAware ADS-B
Mon 02:51:03 AM 40.4290 145.0080 222° Southwest 442 509 40,000  Level FlightAware ADS-B
Mon 02:51:43 AM 40.3690 144.9350 223° Southwest 443 510 40,000  Level FlightAware ADS-B
Mon 02:52:26 AM 40.3190 144.8740 223° Southwest 443 510 40,000  Level FlightAware ADS-B
Mon 02:53:13 AM 40.2410 144.7800 223° Southwest 443 510 40,000  Level FlightAware ADS-B
Mon 02:53:47 AM 40.1970 144.7270 223° Southwest 443 510 40,000  Level FlightAware ADS-B
Mon 02:54:35 AM 40.1360 144.6530 223° Southwest 443 510 40,000  Level FlightAware ADS-B
Mon 02:55:12 AM 40.0890 144.5950 223° Southwest 443 510 40,000  Level FlightAware ADS-B
Mon 02:56:00 AM 40.0280 144.5210 223° Southwest 443 510 40,000  Level FlightAware ADS-B
Mon 02:56:37 AM 39.9810 144.4630 223° Southwest 443 510 40,000  Level FlightAware ADS-B
Mon 02:57:24 AM 39.9210 144.3910 223° Southwest 443 510 40,000  Level FlightAware ADS-B
Mon 02:58:01 AM 39.8740 144.3330 223° Southwest 443 510 40,000  Level FlightAware ADS-B
Mon 02:58:50 AM 39.8110 144.2580 222° Southwest 443 510 40,000  Level FlightAware ADS-B
Mon 02:59:26 AM 39.7650 144.2020 223° Southwest 443 510 40,000  Level FlightAware ADS-B
Mon 03:00:05 AM 39.7160 144.1420 223° Southwest 443 510 40,000  Level FlightAware ADS-B
Mon 03:00:54 AM 39.6530 144.0660 223° Southwest 443 510 40,000  Level FlightAware ADS-B
Mon 03:01:28 AM 39.6100 144.0140 223° Southwest 443 510 40,000  Level FlightAware ADS-B
Mon 03:02:19 AM 39.5450 143.9350 223° Southwest 443 510 40,000  Level FlightAware ADS-B
Mon 03:03:14 AM 39.3150 143.6940 219° Southwest 40,000  Level FlightAware ADS-B
Mon 03:04:12 AM 39.2330 143.6000 222° Southwest 438 504 40,000  Level FlightAware ADS-B
Mon 03:04:48 AM 39.1870 143.5460 222° Southwest 438 504 40,000  Level FlightAware ADS-B
Mon 03:05:34 AM 39.1020 143.4500 221° Southwest 434 499 40,000  Level FlightAware ADS-B
Mon 03:06:14 AM 39.0410 143.3800 222° Southwest 433 498 40,000  Level FlightAware ADS-B
Mon 03:07:14 AM 38.9660 143.2940 222° Southwest 433 498 40,000  Level FlightAware ADS-B
Mon 03:07:52 AM 38.8850 143.2290 212° Southwest 456 525 40,000  Level FlightAware ADS-B
Mon 03:08:32 AM 38.7920 143.2120 188° South 472 543 40,000  Level FlightAware ADS-B
Mon 03:10:01 AM 38.6160 143.1880 186° South 471 542 40,000  Level FlightAware ADS-B
Mon 03:10:37 AM 38.5140 143.1730 187° South 480 552 40,000  Level FlightAware ADS-B
Mon 03:11:22 AM 38.4160 143.1600 186° South 482 555 40,000  Level FlightAware ADS-B
Mon 03:12:07 AM 38.3190 143.1460 186° South 482 555 40,000  Level FlightAware ADS-B
Mon 03:12:42 AM 38.2460 143.1360 186° South 483 556 40,000  Level FlightAware ADS-B
Mon 03:13:30 AM 38.1560 143.1240 186° South 483 556 40,000  Level FlightAware ADS-B
Mon 03:14:05 AM 38.0900 143.1150 186° South 483 556 40,000  Level FlightAware ADS-B
Mon 03:14:53 AM 37.9990 143.1030 186° South 483 556 40,000 -1,528 Level FlightAware ADS-B
Mon 03:15:29 AM 37.9050 143.0290 212° Southwest 37,500 -2,177 Descending FlightAware ADS-B
Mon 03:16:46 AM 37.7620 142.9600 201° Southwest 405 466 35,900 -835 Descending FlightAware ADS-B
Mon 03:17:24 AM 37.7050 142.9320 201° Southwest 405 466 35,900 -820 Level FlightAware ADS-B
Mon 03:18:17 AM 37.6040 142.8840 201° Southwest 34,000 -1,129 Descending FlightAware ADS-B
Mon 03:19:05 AM 37.5230 142.8450 201° Southwest 420 483 34,000  Level FlightAware ADS-B
Mon 03:19:42 AM 37.4620 142.8160 201° Southwest 426 490 34,000  Level FlightAware ADS-B
Mon 03:20:45 AM 37.3400 142.7580 201° Southwest 34,000  Level FlightAware ADS-B
Mon 03:21:25 AM 37.2680 142.7240 201° Southwest 435 501 34,000  Level FlightAware ADS-B
Mon 03:22:05 AM 37.1900 142.6870 201° Southwest 436 502 34,000  Level FlightAware ADS-B
Mon 03:22:43 AM 37.1190 142.6540 200° South 440 506 34,000  Level FlightAware ADS-B
Mon 03:23:49 AM 36.9990 142.5980 200° South 438 504 34,000  Level FlightAware ADS-B
Mon 03:24:28 AM 36.9350 142.5690 200° South 438 504 34,000  Level FlightAware ADS-B
Mon 03:25:04 AM 36.8770 142.5420 200° South 438 504 34,000  Level FlightAware ADS-B
Mon 03:25:48 AM 36.7710 142.4900 201° Southwest 441 507 34,000  Level FlightAware ADS-B
Mon 03:26:29 AM 36.6810 142.4480 201° Southwest 34,000  Level FlightAware ADS-B
Mon 03:27:20 AM 36.5880 142.4050 200° South 438 504 34,000  Level FlightAware ADS-B
Mon 03:28:08 AM 36.5010 142.3640 201° Southwest 438 504 34,000  Level FlightAware ADS-B
Mon 03:28:54 AM 36.4100 142.3230 200° South 438 504 34,000  Level FlightAware ADS-B
Mon 03:29:36 AM 36.3290 142.2850 201° Southwest 438 504 34,000 -229 Level FlightAware ADS-B
Mon 03:30:20 AM 36.2420 142.2450 200° South 34,000 -337 Level FlightAware ADS-B
Mon 03:31:05 AM 36.1580 142.2070 200° South 430 495 33,500 -2,541 Descending FlightAware ADS-B
Mon 03:31:45 AM 36.0800 142.1710 200° South 450 518 30,400 -4,376 Descending FlightAware ADS-B
Mon 03:32:30 AM 35.9870 142.1280 201° Southwest 477 549 27,300 -2,753 Descending FlightAware ADS-B
Mon 03:33:10 AM 35.9130 142.0940 200° South 431 496 26,500 -2,302 Descending FlightAware ADS-B
Mon 03:33:56 AM 35.8260 142.0550 200° South 412 474 24,000 -3,070 Descending FlightAware ADS-B
Mon 03:34:36 AM 35.7570 142.0230 201° Southwest 396 456 22,100 -2,550 Descending FlightAware ADS-B
Mon 03:35:16 AM 35.6940 141.9950 200° South 396 456 20,600 -2,222 Descending FlightAware ADS-B
Mon 03:35:57 AM 35.6220 141.9550 204° Southwest 384 442 19,100 -2,197 Descending FlightAware ADS-B
Mon 03:36:27 AM 35.5920 141.9000 236° Southwest 373 429 18,000 -2,091 Descending FlightAware ADS-B
Mon 03:37:03 AM 35.5870 141.8310 265° West 357 411 16,800 -1,239 Descending FlightAware ADS-B
Mon 03:37:59 AM 35.5810 141.7300 266° West 359 413 16,100 -1,154 Descending FlightAware ADS-B
Mon 03:38:47 AM 35.6200 141.6210 294° West 358 412 14,800 -1,271 Descending FlightAware ADS-B
Mon 03:39:24 AM 35.6400 141.5570 291° West 355 409 14,300 -1,024 Descending FlightAware ADS-B
Mon 03:40:09 AM 35.6680 141.4670 291° West 339 390 13,400 -1,023 Descending FlightAware ADS-B
Mon 03:40:52 AM 35.6900 141.3920 290° West 315 362 12,800 -818 Descending FlightAware ADS-B
Mon 03:41:37 AM 35.7120 141.3230 291° West 299 344 12,200 -987 Descending FlightAware ADS-B
Mon 03:42:11 AM 35.7270 141.2720 290° West 299 344 11,500 -1,435 Descending FlightAware ADS-B
Mon 03:43:09 AM 35.7570 141.1730 291° West 298 343 10,000 -1,432 Descending FlightAware ADS-B
Mon 03:43:39 AM 35.7700 141.1290 290° West 296 341 9,400 -814 Descending FlightAware ADS-B
Mon 03:44:08 AM 35.7830 141.0860 290° West 293 337 9,200 -203 Descending FlightAware ADS-B
Mon 03:44:38 AM 35.7970 141.0380 290° West 293 337 9,200  Level FlightAware ADS-B
Mon 03:45:08 AM 35.8120 140.9890 291° West 294 338 9,200  Level FlightAware ADS-B
Mon 03:45:32 AM 35.8240 140.9490 290° West 294 338 9,200  Level FlightAware ADS-B
Mon 03:45:50 AM 35.8320 140.9230 291° West 295 339 9,200  Level FlightAware ADS-B
Mon 03:46:13 AM 35.8430 140.8870 291° West 293 337 9,200  Level FlightAware ADS-B
Mon 03:46:43 AM 35.8580 140.8410 292° West 293 337 9,200  Level FlightAware ADS-B
Mon 03:46:59 AM 35.8660 140.8160 292° West 292 336 9,200  Level FlightAware ADS-B
Mon 03:47:23 AM 35.8770 140.7790 290° West 291 335 9,200  Level FlightAware ADS-B
Mon 03:47:53 AM 35.8920 140.7320 292° West 267 307 9,200  Level FlightAware ADS-B
Mon 03:48:22 AM 35.9030 140.6980 292° West 254 292 9,200 -207 Level FlightAware ADS-B
Mon 03:48:51 AM 35.9150 140.6570 290° West 255 293 9,000 -828 Descending FlightAware ADS-B
Mon 03:49:20 AM 35.9280 140.6150 291° West 252 290 8,400 -1,385 Descending FlightAware ADS-B
Mon 03:49:30 AM 35.9330 140.6020 295° West 253 291 8,100 -1,263 Descending FlightAware ADS-B
Mon 03:49:58 AM 35.9440 140.5660 291° West 249 287 7,600 -1,222 Descending FlightAware ADS-B
Mon 03:50:24 AM 35.9550 140.5300 291° West 248 285 7,000 -1,071 Descending FlightAware ADS-B
Mon 03:50:54 AM 35.9670 140.4910 291° West 245 282 6,600 -638 Descending FlightAware ADS-B
Mon 03:51:11 AM 35.9750 140.4670 292° West 235 270 6,500 -545 Descending FlightAware ADS-B
Mon 03:51:38 AM 35.9850 140.4370 292° West 225 259 6,200 -536 Descending FlightAware ADS-B
Mon 03:52:07 AM 35.9910 140.4020 282° West 215 247 6,000 -873 Descending FlightAware ADS-B
Mon 03:52:33 AM 35.9900 140.3750 267° West 217 250 5,400 -1,459 Descending FlightAware ADS-B
Mon 03:52:44 AM 35.9890 140.3610 265° West 220 253 5,100 -1,350 Descending FlightAware ADS-B
Mon 03:53:13 AM 35.9850 140.3210 263° West 215 247 4,500 -931 Descending FlightAware ADS-B
Mon 03:53:42 AM 35.9830 140.2850 266° West 195 224 4,200 -842 Descending FlightAware ADS-B
Mon 03:54:10 AM 35.9750 140.2560 251° West 188 216 3,700 -837 Descending FlightAware ADS-B
Mon 03:55:08 AM 35.9400 140.2490 189° South 157 181 3,000 -512 Descending FlightAware ADS-B
Mon 03:55:32 AM 35.9260 140.2580 152° Southeast 157 181 3,000  Level FlightAware ADS-B
Mon 03:56:06 AM 35.9060 140.2730 149° Southeast 140 161 3,000 -171 Level FlightAware ADS-B
Mon 03:56:42 AM 35.8850 140.2880 150° Southeast 144 166 2,800 -436 Descending FlightAware ADS-B
Mon 03:57:01 AM 35.8750 140.2950 150° Southeast 144 166 2,600 -714 Descending FlightAware ADS-B
Mon 03:57:24 AM 35.8610 140.3060 148° Southeast 146 168 2,300 -778 Descending FlightAware ADS-B
Mon 03:57:55 AM 35.8440 140.3180 150° Southeast 143 165 1,900 -712 Descending FlightAware ADS-B
Mon 03:58:23 AM 35.8290 140.3290 149° Southeast 141 162 1,600 -321 Descending FlightAware ADS-B
Mon 03:58:51 AM 35.8150 140.3390 150° Southeast 141 162 1,600  Level FlightAware ADS-B

Login

Don't have an account? Register now (free) for customized features, flight alerts, and more!